KPNC/PNC METAR and TAF weather

Enter ICAO airport designator
Station Type Date Time Source
KPNC METAR 2021/03/02 15:53 UTC NOAA

KPNC 021553Z AUTO 18006KT 10SM CLR 10/M03 A3026 RMK AO2 SLP248 T01001028


Station Type Date Time Source
KPNC Decoded METAR 2021/03/02 15:53 UTC NOAA

PONCA CITY MUNICIPAL AIRPORT, OK, United States (KPNC) 36-44N 97-06W 308M
Mar 02, 2021 - 10:53 AM EST / 2021.03.02 1553 UTC
Wind: from the S (180 degrees) at 7 MPH (6 KT):0
Visibility: 10 mile(s):0
Sky conditions: clear
Temperature: 50.0 F (10.0 C)
Dew Point: 27.0 F (-2.8 C)
Relative Humidity: 40%
Pressure (altimeter): 30.26 in. Hg (1024 hPa)
ob: KPNC 021553Z AUTO 18006KT 10SM CLR 10/M03 A3026 RMK AO2 SLP248 T01001028
cycle: 16

Station Type Date Time Source
KPNC TAF 2021/03/02 12:22 UTC NOAA

TAF KPNC 021120Z 0212/0312 20004KT P6SM SKC
FM021600 21007KT P6SM SKC

Example: see airport list